sensor_id;sensor_type;location;lat;lon;timestamp;P1;durP1;ratioP1;P2;durP2;ratioP2
16127;SDS011;8168;49.036;7.690;2022-08-23T00:02:16;3.93;;;3.33;;
16127;SDS011;8168;49.036;7.690;2022-08-23T00:04:47;5.27;;;3.63;;
16127;SDS011;8168;49.036;7.690;2022-08-23T00:07:18;4.17;;;3.77;;
16127;SDS011;8168;49.036;7.690;2022-08-23T00:09:49;4.50;;;4.10;;
16127;SDS011;8168;49.036;7.690;2022-08-23T00:12:20;4.90;;;3.83;;
16127;SDS011;8168;49.036;7.690;2022-08-23T00:14:52;4.23;;;3.73;;
16127;SDS011;8168;49.036;7.690;2022-08-23T00:17:23;5.60;;;4.13;;
16127;SDS011;8168;49.036;7.690;2022-08-23T00:19:54;4.80;;;4.40;;
16127;SDS011;8168;49.036;7.690;2022-08-23T00:22:26;4.07;;;3.67;;
16127;SDS011;8168;49.036;7.690;2022-08-23T00:24:56;5.50;;;3.93;;
16127;SDS011;8168;49.036;7.690;2022-08-23T00:27:27;5.10;;;4.60;;
16127;SDS011;8168;49.036;7.690;2022-08-23T00:29:58;4.47;;;3.87;;
16127;SDS011;8168;49.036;7.690;2022-08-23T00:32:30;4.53;;;4.00;;
16127;SDS011;8168;49.036;7.690;2022-08-23T00:35:04;5.20;;;3.60;;
16127;SDS011;8168;49.036;7.690;2022-08-23T00:37:35;4.03;;;3.73;;
16127;SDS011;8168;49.036;7.690;2022-08-23T00:40:08;4.00;;;3.60;;
16127;SDS011;8168;49.036;7.690;2022-08-23T00:42:51;4.27;;;3.87;;
16127;SDS011;8168;49.036;7.690;2022-08-23T00:45:46;4.10;;;3.70;;
16127;SDS011;8168;49.036;7.690;2022-08-23T00:48:45;4.00;;;3.60;;
16127;SDS011;8168;49.036;7.690;2022-08-23T00:53:59;6.83;;;3.93;;
16127;SDS011;8168;49.036;7.690;2022-08-23T00:56:33;4.60;;;3.87;;
16127;SDS011;8168;49.036;7.690;2022-08-23T00:59:05;5.87;;;3.90;;
16127;SDS011;8168;49.036;7.690;2022-08-23T01:01:36;4.40;;;4.00;;
16127;SDS011;8168;49.036;7.690;2022-08-23T01:04:07;3.93;;;3.63;;
16127;SDS011;8168;49.036;7.690;2022-08-23T01:06:49;6.23;;;3.90;;
16127;SDS011;8168;49.036;7.690;2022-08-23T01:09:24;4.37;;;3.90;;
16127;SDS011;8168;49.036;7.690;2022-08-23T01:11:58;5.00;;;4.20;;
16127;SDS011;8168;49.036;7.690;2022-08-23T01:14:43;5.70;;;4.27;;
16127;SDS011;8168;49.036;7.690;2022-08-23T01:17:21;5.50;;;4.33;;
16127;SDS011;8168;49.036;7.690;2022-08-23T01:19:56;6.47;;;4.30;;
16127;SDS011;8168;49.036;7.690;2022-08-23T01:22:33;5.77;;;4.30;;
16127;SDS011;8168;49.036;7.690;2022-08-23T01:25:06;4.53;;;4.13;;
16127;SDS011;8168;49.036;7.690;2022-08-23T01:27:40;6.17;;;4.03;;
16127;SDS011;8168;49.036;7.690;2022-08-23T01:30:12;4.97;;;4.47;;
16127;SDS011;8168;49.036;7.690;2022-08-23T01:32:49;4.63;;;4.20;;
16127;SDS011;8168;49.036;7.690;2022-08-23T01:35:50;5.90;;;4.60;;
16127;SDS011;8168;49.036;7.690;2022-08-23T01:38:23;4.93;;;4.23;;
16127;SDS011;8168;49.036;7.690;2022-08-23T01:40:54;5.30;;;3.93;;
16127;SDS011;8168;49.036;7.690;2022-08-23T01:43:25;5.77;;;4.57;;
16127;SDS011;8168;49.036;7.690;2022-08-23T01:45:56;5.60;;;4.47;;
16127;SDS011;8168;49.036;7.690;2022-08-23T01:48:27;5.93;;;4.40;;
16127;SDS011;8168;49.036;7.690;2022-08-23T01:50:57;4.70;;;4.10;;
16127;SDS011;8168;49.036;7.690;2022-08-23T01:53:28;4.57;;;4.13;;
16127;SDS011;8168;49.036;7.690;2022-08-23T01:55:59;4.63;;;4.10;;
16127;SDS011;8168;49.036;7.690;2022-08-23T01:58:33;5.37;;;4.67;;
16127;SDS011;8168;49.036;7.690;2022-08-23T02:01:04;5.57;;;4.70;;
16127;SDS011;8168;49.036;7.690;2022-08-23T02:03:35;5.33;;;4.40;;
16127;SDS011;8168;49.036;7.690;2022-08-23T02:06:07;8.93;;;4.47;;
16127;SDS011;8168;49.036;7.690;2022-08-23T02:08:37;6.20;;;4.53;;
16127;SDS011;8168;49.036;7.690;2022-08-23T02:11:28;4.70;;;4.27;;
16127;SDS011;8168;49.036;7.690;2022-08-23T02:14:03;5.00;;;4.50;;
16127;SDS011;8168;49.036;7.690;2022-08-23T02:16:38;5.30;;;4.37;;
16127;SDS011;8168;49.036;7.690;2022-08-23T02:19:12;4.93;;;3.90;;
16127;SDS011;8168;49.036;7.690;2022-08-23T02:21:43;5.13;;;4.60;;
16127;SDS011;8168;49.036;7.690;2022-08-23T02:24:16;5.70;;;4.83;;
16127;SDS011;8168;49.036;7.690;2022-08-23T02:26:54;5.67;;;4.40;;
16127;SDS011;8168;49.036;7.690;2022-08-23T02:29:26;7.80;;;4.40;;
16127;SDS011;8168;49.036;7.690;2022-08-23T02:32:00;8.10;;;5.07;;
16127;SDS011;8168;49.036;7.690;2022-08-23T02:34:33;7.70;;;4.20;;
16127;SDS011;8168;49.036;7.690;2022-08-23T02:37:04;4.73;;;3.97;;
16127;SDS011;8168;49.036;7.690;2022-08-23T02:39:36;5.13;;;4.30;;
16127;SDS011;8168;49.036;7.690;2022-08-23T02:42:08;5.00;;;4.50;;
16127;SDS011;8168;49.036;7.690;2022-08-23T02:44:39;5.27;;;4.07;;
16127;SDS011;8168;49.036;7.690;2022-08-23T02:47:09;5.00;;;4.27;;
16127;SDS011;8168;49.036;7.690;2022-08-23T02:49:41;4.80;;;4.20;;
16127;SDS011;8168;49.036;7.690;2022-08-23T02:52:12;6.63;;;5.10;;
16127;SDS011;8168;49.036;7.690;2022-08-23T02:54:42;5.83;;;3.93;;
16127;SDS011;8168;49.036;7.690;2022-08-23T02:57:13;4.80;;;4.23;;
16127;SDS011;8168;49.036;7.690;2022-08-23T02:59:44;4.27;;;3.80;;
16127;SDS011;8168;49.036;7.690;2022-08-23T03:02:14;4.73;;;4.33;;
16127;SDS011;8168;49.036;7.690;2022-08-23T03:04:45;8.23;;;4.50;;
16127;SDS011;8168;49.036;7.690;2022-08-23T03:07:16;4.90;;;4.40;;
16127;SDS011;8168;49.036;7.690;2022-08-23T03:09:47;5.57;;;4.30;;
16127;SDS011;8168;49.036;7.690;2022-08-23T03:12:17;5.40;;;4.30;;
16127;SDS011;8168;49.036;7.690;2022-08-23T03:14:48;5.17;;;4.30;;
16127;SDS011;8168;49.036;7.690;2022-08-23T03:17:21;4.60;;;4.17;;
16127;SDS011;8168;49.036;7.690;2022-08-23T03:19:51;5.10;;;4.47;;
16127;SDS011;8168;49.036;7.690;2022-08-23T03:22:22;5.77;;;4.90;;
16127;SDS011;8168;49.036;7.690;2022-08-23T03:24:53;4.87;;;4.40;;
16127;SDS011;8168;49.036;7.690;2022-08-23T03:27:24;6.07;;;4.83;;
16127;SDS011;8168;49.036;7.690;2022-08-23T03:29:55;5.27;;;4.77;;
16127;SDS011;8168;49.036;7.690;2022-08-23T03:32:26;5.40;;;4.90;;
16127;SDS011;8168;49.036;7.690;2022-08-23T03:34:56;5.00;;;4.50;;
16127;SDS011;8168;49.036;7.690;2022-08-23T03:37:27;5.17;;;4.67;;
16127;SDS011;8168;49.036;7.690;2022-08-23T03:39:58;6.60;;;4.17;;
16127;SDS011;8168;49.036;7.690;2022-08-23T03:42:29;4.37;;;3.97;;
16127;SDS011;8168;49.036;7.690;2022-08-23T03:44:59;4.60;;;4.20;;
16127;SDS011;8168;49.036;7.690;2022-08-23T03:47:30;4.27;;;3.83;;
16127;SDS011;8168;49.036;7.690;2022-08-23T03:50:00;4.47;;;4.07;;
16127;SDS011;8168;49.036;7.690;2022-08-23T03:52:31;6.23;;;3.90;;
16127;SDS011;8168;49.036;7.690;2022-08-23T03:55:02;4.70;;;4.30;;
16127;SDS011;8168;49.036;7.690;2022-08-23T03:57:34;4.70;;;4.20;;
16127;SDS011;8168;49.036;7.690;2022-08-23T04:00:05;5.77;;;4.80;;
16127;SDS011;8168;49.036;7.690;2022-08-23T04:02:37;4.67;;;4.27;;
16127;SDS011;8168;49.036;7.690;2022-08-23T04:05:09;7.17;;;5.00;;
16127;SDS011;8168;49.036;7.690;2022-08-23T04:07:40;6.90;;;4.97;;
16127;SDS011;8168;49.036;7.690;2022-08-23T04:10:10;5.70;;;4.80;;
16127;SDS011;8168;49.036;7.690;2022-08-23T04:12:44;5.37;;;4.80;;
16127;SDS011;8168;49.036;7.690;2022-08-23T04:15:15;5.30;;;4.73;;
16127;SDS011;8168;49.036;7.690;2022-08-23T04:17:47;5.63;;;5.07;;
16127;SDS011;8168;49.036;7.690;2022-08-23T04:20:18;4.60;;;4.20;;
16127;SDS011;8168;49.036;7.690;2022-08-23T04:22:52;5.23;;;4.40;;
16127;SDS011;8168;49.036;7.690;2022-08-23T04:25:24;5.90;;;4.40;;
16127;SDS011;8168;49.036;7.690;2022-08-23T04:27:54;4.97;;;4.47;;
16127;SDS011;8168;49.036;7.690;2022-08-23T04:30:25;4.87;;;4.47;;
16127;SDS011;8168;49.036;7.690;2022-08-23T04:32:56;4.90;;;4.50;;
16127;SDS011;8168;49.036;7.690;2022-08-23T04:35:26;6.93;;;4.67;;
16127;SDS011;8168;49.036;7.690;2022-08-23T04:37:57;5.23;;;4.63;;
16127;SDS011;8168;49.036;7.690;2022-08-23T04:40:28;6.00;;;4.73;;
16127;SDS011;8168;49.036;7.690;2022-08-23T04:43:17;5.03;;;4.47;;
16127;SDS011;8168;49.036;7.690;2022-08-23T04:45:48;5.30;;;4.60;;
16127;SDS011;8168;49.036;7.690;2022-08-23T04:48:18;5.17;;;4.37;;
16127;SDS011;8168;49.036;7.690;2022-08-23T04:50:49;5.60;;;4.77;;
16127;SDS011;8168;49.036;7.690;2022-08-23T04:53:20;5.10;;;4.60;;
16127;SDS011;8168;49.036;7.690;2022-08-23T04:55:51;5.83;;;4.47;;
16127;SDS011;8168;49.036;7.690;2022-08-23T04:58:21;7.63;;;4.70;;
16127;SDS011;8168;49.036;7.690;2022-08-23T05:00:52;4.97;;;4.53;;
16127;SDS011;8168;49.036;7.690;2022-08-23T05:03:23;4.83;;;4.33;;
16127;SDS011;8168;49.036;7.690;2022-08-23T05:05:55;5.10;;;4.60;;
16127;SDS011;8168;49.036;7.690;2022-08-23T05:08:27;4.90;;;4.37;;
16127;SDS011;8168;49.036;7.690;2022-08-23T05:11:01;5.60;;;4.70;;
16127;SDS011;8168;49.036;7.690;2022-08-23T05:13:33;5.63;;;5.00;;
16127;SDS011;8168;49.036;7.690;2022-08-23T05:16:05;4.70;;;4.30;;
16127;SDS011;8168;49.036;7.690;2022-08-23T05:18:36;5.67;;;4.83;;
16127;SDS011;8168;49.036;7.690;2022-08-23T05:21:07;5.80;;;4.67;;
16127;SDS011;8168;49.036;7.690;2022-08-23T05:23:42;4.87;;;4.47;;
16127;SDS011;8168;49.036;7.690;2022-08-23T05:26:13;5.17;;;4.30;;
16127;SDS011;8168;49.036;7.690;2022-08-23T05:28:44;5.40;;;4.90;;
16127;SDS011;8168;49.036;7.690;2022-08-23T05:31:20;7.00;;;5.13;;
16127;SDS011;8168;49.036;7.690;2022-08-23T05:33:52;7.47;;;5.10;;
16127;SDS011;8168;49.036;7.690;2022-08-23T05:36:24;6.17;;;4.53;;
16127;SDS011;8168;49.036;7.690;2022-08-23T05:38:54;6.77;;;5.03;;
16127;SDS011;8168;49.036;7.690;2022-08-23T05:41:25;5.37;;;4.60;;
16127;SDS011;8168;49.036;7.690;2022-08-23T05:43:57;5.70;;;4.97;;
16127;SDS011;8168;49.036;7.690;2022-08-23T05:46:28;5.07;;;4.57;;
16127;SDS011;8168;49.036;7.690;2022-08-23T05:48:58;5.60;;;5.10;;
16127;SDS011;8168;49.036;7.690;2022-08-23T05:51:30;5.43;;;4.73;;
16127;SDS011;8168;49.036;7.690;2022-08-23T05:54:04;6.00;;;5.30;;
16127;SDS011;8168;49.036;7.690;2022-08-23T05:56:37;7.97;;;4.57;;
16127;SDS011;8168;49.036;7.690;2022-08-23T05:59:12;6.13;;;5.53;;
16127;SDS011;8168;49.036;7.690;2022-08-23T06:01:45;5.70;;;5.10;;
16127;SDS011;8168;49.036;7.690;2022-08-23T06:04:16;5.27;;;4.50;;
16127;SDS011;8168;49.036;7.690;2022-08-23T06:06:47;5.13;;;4.60;;
16127;SDS011;8168;49.036;7.690;2022-08-23T06:09:18;6.47;;;5.23;;
16127;SDS011;8168;49.036;7.690;2022-08-23T06:11:49;6.10;;;5.07;;
16127;SDS011;8168;49.036;7.690;2022-08-23T06:14:19;5.67;;;4.73;;
16127;SDS011;8168;49.036;7.690;2022-08-23T06:16:52;5.23;;;4.73;;
16127;SDS011;8168;49.036;7.690;2022-08-23T06:19:23;7.97;;;5.10;;
16127;SDS011;8168;49.036;7.690;2022-08-23T06:21:54;5.20;;;4.70;;
16127;SDS011;8168;49.036;7.690;2022-08-23T06:24:24;6.13;;;5.00;;
16127;SDS011;8168;49.036;7.690;2022-08-23T06:26:55;7.03;;;4.90;;
16127;SDS011;8168;49.036;7.690;2022-08-23T06:29:26;6.43;;;4.83;;
16127;SDS011;8168;49.036;7.690;2022-08-23T06:31:57;5.80;;;4.37;;
16127;SDS011;8168;49.036;7.690;2022-08-23T06:34:29;5.03;;;4.53;;
16127;SDS011;8168;49.036;7.690;2022-08-23T06:37:04;5.53;;;4.83;;
16127;SDS011;8168;49.036;7.690;2022-08-23T06:39:36;6.13;;;5.07;;
16127;SDS011;8168;49.036;7.690;2022-08-23T06:42:11;6.37;;;4.80;;
16127;SDS011;8168;49.036;7.690;2022-08-23T06:44:43;5.37;;;4.87;;
16127;SDS011;8168;49.036;7.690;2022-08-23T06:47:14;5.87;;;4.50;;
16127;SDS011;8168;49.036;7.690;2022-08-23T06:49:45;6.50;;;4.93;;
16127;SDS011;8168;49.036;7.690;2022-08-23T06:52:16;5.93;;;4.57;;
16127;SDS011;8168;49.036;7.690;2022-08-23T06:54:47;7.27;;;4.93;;
16127;SDS011;8168;49.036;7.690;2022-08-23T06:57:17;8.90;;;4.70;;
16127;SDS011;8168;49.036;7.690;2022-08-23T06:59:49;4.47;;;4.07;;
16127;SDS011;8168;49.036;7.690;2022-08-23T07:02:20;4.80;;;4.40;;
16127;SDS011;8168;49.036;7.690;2022-08-23T07:04:50;4.73;;;4.00;;
16127;SDS011;8168;49.036;7.690;2022-08-23T07:07:24;7.47;;;4.40;;
16127;SDS011;8168;49.036;7.690;2022-08-23T07:09:55;6.80;;;4.50;;
16127;SDS011;8168;49.036;7.690;2022-08-23T07:12:25;3.90;;;3.50;;
16127;SDS011;8168;49.036;7.690;2022-08-23T07:14:56;5.47;;;3.93;;
16127;SDS011;8168;49.036;7.690;2022-08-23T07:17:26;6.40;;;4.13;;
16127;SDS011;8168;49.036;7.690;2022-08-23T07:19:57;3.93;;;3.40;;
16127;SDS011;8168;49.036;7.690;2022-08-23T07:22:28;5.03;;;3.80;;
16127;SDS011;8168;49.036;7.690;2022-08-23T07:24:58;4.80;;;3.30;;
16127;SDS011;8168;49.036;7.690;2022-08-23T07:27:29;4.40;;;3.60;;
16127;SDS011;8168;49.036;7.690;2022-08-23T07:29:59;4.30;;;3.27;;
16127;SDS011;8168;49.036;7.690;2022-08-23T07:32:31;4.23;;;3.40;;
16127;SDS011;8168;49.036;7.690;2022-08-23T07:35:03;3.43;;;2.60;;
16127;SDS011;8168;49.036;7.690;2022-08-23T07:37:34;6.10;;;2.87;;
16127;SDS011;8168;49.036;7.690;2022-08-23T07:40:06;5.27;;;2.67;;
16127;SDS011;8168;49.036;7.690;2022-08-23T07:42:37;3.63;;;2.47;;
16127;SDS011;8168;49.036;7.690;2022-08-23T07:45:09;3.30;;;2.40;;
16127;SDS011;8168;49.036;7.690;2022-08-23T07:47:39;2.67;;;2.47;;
16127;SDS011;8168;49.036;7.690;2022-08-23T07:50:11;3.40;;;2.40;;
16127;SDS011;8168;49.036;7.690;2022-08-23T07:52:43;3.60;;;2.57;;
16127;SDS011;8168;49.036;7.690;2022-08-23T07:55:13;4.90;;;2.17;;
16127;SDS011;8168;49.036;7.690;2022-08-23T07:57:44;2.23;;;2.00;;
16127;SDS011;8168;49.036;7.690;2022-08-23T08:00:15;2.50;;;2.10;;
16127;SDS011;8168;49.036;7.690;2022-08-23T08:02:46;2.50;;;2.03;;
16127;SDS011;8168;49.036;7.690;2022-08-23T08:05:16;3.77;;;2.30;;
16127;SDS011;8168;49.036;7.690;2022-08-23T08:07:47;2.87;;;2.00;;
16127;SDS011;8168;49.036;7.690;2022-08-23T08:10:18;2.67;;;2.00;;
16127;SDS011;8168;49.036;7.690;2022-08-23T08:12:49;4.93;;;2.53;;
16127;SDS011;8168;49.036;7.690;2022-08-23T08:15:20;6.10;;;2.27;;
16127;SDS011;8168;49.036;7.690;2022-08-23T08:17:52;3.87;;;2.07;;
16127;SDS011;8168;49.036;7.690;2022-08-23T08:20:23;2.80;;;2.17;;
16127;SDS011;8168;49.036;7.690;2022-08-23T08:22:55;4.83;;;2.13;;
16127;SDS011;8168;49.036;7.690;2022-08-23T08:25:26;2.60;;;2.00;;
16127;SDS011;8168;49.036;7.690;2022-08-23T08:27:57;4.43;;;2.37;;
16127;SDS011;8168;49.036;7.690;2022-08-23T08:30:28;4.37;;;2.07;;
16127;SDS011;8168;49.036;7.690;2022-08-23T08:32:58;5.30;;;2.00;;
16127;SDS011;8168;49.036;7.690;2022-08-23T08:35:29;4.17;;;2.20;;
16127;SDS011;8168;49.036;7.690;2022-08-23T08:38:01;6.10;;;2.00;;
16127;SDS011;8168;49.036;7.690;2022-08-23T08:40:33;2.67;;;1.80;;
16127;SDS011;8168;49.036;7.690;2022-08-23T08:43:33;3.83;;;2.33;;
16127;SDS011;8168;49.036;7.690;2022-08-23T08:46:21;2.23;;;1.87;;
16127;SDS011;8168;49.036;7.690;2022-08-23T08:48:59;4.57;;;2.30;;
16127;SDS011;8168;49.036;7.690;2022-08-23T08:51:40;3.03;;;2.17;;
16127;SDS011;8168;49.036;7.690;2022-08-23T08:54:17;5.37;;;2.30;;
16127;SDS011;8168;49.036;7.690;2022-08-23T08:56:51;2.73;;;1.80;;
16127;SDS011;8168;49.036;7.690;2022-08-23T08:59:36;3.13;;;1.70;;
16127;SDS011;8168;49.036;7.690;2022-08-23T09:02:14;2.93;;;1.80;;
16127;SDS011;8168;49.036;7.690;2022-08-23T09:04:47;4.17;;;2.20;;
16127;SDS011;8168;49.036;7.690;2022-08-23T09:13:02;3.53;;;2.20;;
16127;SDS011;8168;49.036;7.690;2022-08-23T09:16:05;5.33;;;1.93;;
16127;SDS011;8168;49.036;7.690;2022-08-23T09:18:55;2.65;;;1.98;;
16127;SDS011;8168;49.036;7.690;2022-08-23T09:21:26;4.18;;;2.08;;
16127;SDS011;8168;49.036;7.690;2022-08-23T09:24:06;5.60;;;2.00;;
16127;SDS011;8168;49.036;7.690;2022-08-23T09:26:37;3.05;;;2.30;;
16127;SDS011;8168;49.036;7.690;2022-08-23T09:31:53;3.30;;;2.03;;
16127;SDS011;8168;49.036;7.690;2022-08-23T09:42:43;2.67;;;2.13;;
16127;SDS011;8168;49.036;7.690;2022-08-23T09:45:30;2.55;;;1.90;;
16127;SDS011;8168;49.036;7.690;2022-08-23T09:48:04;5.43;;;1.70;;
16127;SDS011;8168;49.036;7.690;2022-08-23T09:50:37;3.33;;;2.10;;
16127;SDS011;8168;49.036;7.690;2022-08-23T09:53:12;7.47;;;2.10;;
16127;SDS011;8168;49.036;7.690;2022-08-23T09:55:53;3.13;;;1.90;;
16127;SDS011;8168;49.036;7.690;2022-08-23T09:58:30;2.80;;;2.40;;
16127;SDS011;8168;49.036;7.690;2022-08-23T10:01:08;1.95;;;1.77;;
16127;SDS011;8168;49.036;7.690;2022-08-23T10:03:41;3.05;;;1.90;;
16127;SDS011;8168;49.036;7.690;2022-08-23T10:06:13;3.58;;;2.05;;
16127;SDS011;8168;49.036;7.690;2022-08-23T10:08:59;5.57;;;1.90;;
16127;SDS011;8168;49.036;7.690;2022-08-23T10:11:38;2.75;;;1.98;;
16127;SDS011;8168;49.036;7.690;2022-08-23T10:14:15;3.78;;;2.28;;
16127;SDS011;8168;49.036;7.690;2022-08-23T10:19:40;4.90;;;1.95;;
16127;SDS011;8168;49.036;7.690;2022-08-23T10:23:25;2.83;;;2.00;;
16127;SDS011;8168;49.036;7.690;2022-08-23T10:25:58;5.07;;;2.10;;
16127;SDS011;8168;49.036;7.690;2022-08-23T10:28:31;3.60;;;2.45;;
16127;SDS011;8168;49.036;7.690;2022-08-23T10:31:42;4.10;;;2.30;;
16127;SDS011;8168;49.036;7.690;2022-08-23T10:42:58;2.40;;;2.08;;
16127;SDS011;8168;49.036;7.690;2022-08-23T10:45:40;3.22;;;2.20;;
16127;SDS011;8168;49.036;7.690;2022-08-23T10:48:22;3.05;;;2.17;;
16127;SDS011;8168;49.036;7.690;2022-08-23T10:51:40;4.20;;;2.17;;
16127;SDS011;8168;49.036;7.690;2022-08-23T10:54:01;2.78;;;1.92;;
16127;SDS011;8168;49.036;7.690;2022-08-23T10:56:42;3.28;;;2.20;;
16127;SDS011;8168;49.036;7.690;2022-08-23T10:59:14;3.45;;;2.72;;
16127;SDS011;8168;49.036;7.690;2022-08-23T11:01:55;3.30;;;2.38;;
16127;SDS011;8168;49.036;7.690;2022-08-23T11:04:47;3.50;;;2.30;;
16127;SDS011;8168;49.036;7.690;2022-08-23T11:07:34;4.60;;;2.30;;
16127;SDS011;8168;49.036;7.690;2022-08-23T11:12:53;2.92;;;2.30;;
16127;SDS011;8168;49.036;7.690;2022-08-23T11:15:30;4.00;;;2.28;;
16127;SDS011;8168;49.036;7.690;2022-08-23T11:37:48;2.95;;;2.55;;
16127;SDS011;8168;49.036;7.690;2022-08-23T11:43:23;3.25;;;2.65;;
16127;SDS011;8168;49.036;7.690;2022-08-23T11:54:46;2.70;;;2.45;;
16127;SDS011;8168;49.036;7.690;2022-08-23T12:00:25;2.40;;;2.20;;
16127;SDS011;8168;49.036;7.690;2022-08-23T12:03:21;2.67;;;2.25;;
16127;SDS011;8168;49.036;7.690;2022-08-23T12:12:09;3.03;;;2.60;;
16127;SDS011;8168;49.036;7.690;2022-08-23T12:15:00;6.35;;;2.38;;
16127;SDS011;8168;49.036;7.690;2022-08-23T12:25:29;2.33;;;2.08;;
16127;SDS011;8168;49.036;7.690;2022-08-23T12:28:45;5.70;;;3.22;;
16127;SDS011;8168;49.036;7.690;2022-08-23T12:31:02;2.53;;;2.33;;
16127;SDS011;8168;49.036;7.690;2022-08-23T12:36:40;3.83;;;2.20;;
16127;SDS011;8168;49.036;7.690;2022-08-23T12:39:28;5.53;;;2.70;;
16127;SDS011;8168;49.036;7.690;2022-08-23T12:47:56;3.63;;;2.10;;
16127;SDS011;8168;49.036;7.690;2022-08-23T12:50:33;3.05;;;2.58;;
16127;SDS011;8168;49.036;7.690;2022-08-23T12:53:07;3.60;;;2.65;;
16127;SDS011;8168;49.036;7.690;2022-08-23T12:55:45;6.65;;;3.92;;
16127;SDS011;8168;49.036;7.690;2022-08-23T12:58:25;2.47;;;2.25;;
16127;SDS011;8168;49.036;7.690;2022-08-23T13:00:59;3.35;;;2.17;;
16127;SDS011;8168;49.036;7.690;2022-08-23T13:03:37;2.75;;;2.28;;
16127;SDS011;8168;49.036;7.690;2022-08-23T13:06:12;5.18;;;3.35;;
16127;SDS011;8168;49.036;7.690;2022-08-23T13:08:45;3.05;;;2.58;;
16127;SDS011;8168;49.036;7.690;2022-08-23T13:11:24;3.53;;;2.22;;
16127;SDS011;8168;49.036;7.690;2022-08-23T13:13:58;5.05;;;2.67;;
16127;SDS011;8168;49.036;7.690;2022-08-23T13:16:31;5.15;;;2.80;;
16127;SDS011;8168;49.036;7.690;2022-08-23T13:19:10;5.72;;;3.10;;
16127;SDS011;8168;49.036;7.690;2022-08-23T13:21:57;5.10;;;3.13;;
16127;SDS011;8168;49.036;7.690;2022-08-23T13:25:29;6.70;;;2.80;;
16127;SDS011;8168;49.036;7.690;2022-08-23T13:32:49;4.65;;;2.97;;
16127;SDS011;8168;49.036;7.690;2022-08-23T13:43:44;2.95;;;2.20;;
16127;SDS011;8168;49.036;7.690;2022-08-23T13:46:18;2.97;;;2.45;;
16127;SDS011;8168;49.036;7.690;2022-08-23T13:49:01;3.70;;;2.47;;
16127;SDS011;8168;49.036;7.690;2022-08-23T13:51:41;2.25;;;2.05;;
16127;SDS011;8168;49.036;7.690;2022-08-23T13:54:30;4.45;;;2.40;;
16127;SDS011;8168;49.036;7.690;2022-08-23T13:57:04;3.10;;;2.15;;
16127;SDS011;8168;49.036;7.690;2022-08-23T13:59:45;3.95;;;2.15;;
16127;SDS011;8168;49.036;7.690;2022-08-23T14:02:20;3.50;;;2.42;;
16127;SDS011;8168;49.036;7.690;2022-08-23T14:04:52;2.30;;;2.10;;
16127;SDS011;8168;49.036;7.690;2022-08-23T14:07:22;4.03;;;2.17;;
16127;SDS011;8168;49.036;7.690;2022-08-23T14:09:53;3.58;;;2.10;;
16127;SDS011;8168;49.036;7.690;2022-08-23T14:12:26;14.85;;;3.15;;
16127;SDS011;8168;49.036;7.690;2022-08-23T14:15:00;2.35;;;2.15;;
16127;SDS011;8168;49.036;7.690;2022-08-23T14:17:39;2.20;;;2.00;;
16127;SDS011;8168;49.036;7.690;2022-08-23T14:20:15;2.70;;;1.88;;
16127;SDS011;8168;49.036;7.690;2022-08-23T14:22:48;3.53;;;2.10;;
16127;SDS011;8168;49.036;7.690;2022-08-23T14:25:18;3.03;;;2.30;;
16127;SDS011;8168;49.036;7.690;2022-08-23T14:27:49;4.10;;;2.35;;
16127;SDS011;8168;49.036;7.690;2022-08-23T14:30:22;2.50;;;2.30;;
16127;SDS011;8168;49.036;7.690;2022-08-23T14:33:02;4.30;;;2.40;;
16127;SDS011;8168;49.036;7.690;2022-08-23T14:35:33;4.10;;;2.28;;
16127;SDS011;8168;49.036;7.690;2022-08-23T14:38:03;3.65;;;2.72;;
16127;SDS011;8168;49.036;7.690;2022-08-23T14:40:34;2.20;;;2.00;;
16127;SDS011;8168;49.036;7.690;2022-08-23T14:43:05;3.53;;;1.90;;
16127;SDS011;8168;49.036;7.690;2022-08-23T14:45:38;2.47;;;2.20;;
16127;SDS011;8168;49.036;7.690;2022-08-23T14:48:09;3.10;;;1.83;;
16127;SDS011;8168;49.036;7.690;2022-08-23T14:50:39;2.72;;;1.90;;
16127;SDS011;8168;49.036;7.690;2022-08-23T14:53:11;2.13;;;1.80;;
16127;SDS011;8168;49.036;7.690;2022-08-23T14:55:43;2.10;;;1.90;;
16127;SDS011;8168;49.036;7.690;2022-08-23T14:58:14;2.85;;;2.03;;
16127;SDS011;8168;49.036;7.690;2022-08-23T15:00:45;2.83;;;2.20;;
16127;SDS011;8168;49.036;7.690;2022-08-23T15:03:17;2.67;;;1.92;;
16127;SDS011;8168;49.036;7.690;2022-08-23T15:05:52;3.03;;;2.15;;
16127;SDS011;8168;49.036;7.690;2022-08-23T15:08:23;3.50;;;1.85;;
16127;SDS011;8168;49.036;7.690;2022-08-23T15:10:54;2.00;;;1.90;;
16127;SDS011;8168;49.036;7.690;2022-08-23T15:13:26;2.17;;;2.00;;
16127;SDS011;8168;49.036;7.690;2022-08-23T15:15:56;2.33;;;2.13;;
16127;SDS011;8168;49.036;7.690;2022-08-23T15:18:27;3.25;;;1.88;;
16127;SDS011;8168;49.036;7.690;2022-08-23T15:20:59;2.65;;;2.10;;
16127;SDS011;8168;49.036;7.690;2022-08-23T15:23:30;2.05;;;1.75;;
16127;SDS011;8168;49.036;7.690;2022-08-23T15:26:02;2.85;;;2.00;;
16127;SDS011;8168;49.036;7.690;2022-08-23T15:28:32;2.65;;;2.05;;
16127;SDS011;8168;49.036;7.690;2022-08-23T15:31:03;3.90;;;1.95;;
16127;SDS011;8168;49.036;7.690;2022-08-23T15:33:34;3.97;;;2.00;;
16127;SDS011;8168;49.036;7.690;2022-08-23T15:36:05;2.25;;;2.05;;
16127;SDS011;8168;49.036;7.690;2022-08-23T15:38:37;2.15;;;1.95;;
16127;SDS011;8168;49.036;7.690;2022-08-23T15:41:09;2.20;;;2.00;;
16127;SDS011;8168;49.036;7.690;2022-08-23T15:43:39;2.80;;;2.20;;
16127;SDS011;8168;49.036;7.690;2022-08-23T15:46:11;2.42;;;1.95;;
16127;SDS011;8168;49.036;7.690;2022-08-23T15:48:52;2.58;;;2.38;;
16127;SDS011;8168;49.036;7.690;2022-08-23T15:51:26;2.25;;;2.10;;
16127;SDS011;8168;49.036;7.690;2022-08-23T15:53:57;2.17;;;1.80;;
16127;SDS011;8168;49.036;7.690;2022-08-23T15:56:29;3.08;;;1.98;;
16127;SDS011;8168;49.036;7.690;2022-08-23T15:59:04;2.17;;;1.88;;
16127;SDS011;8168;49.036;7.690;2022-08-23T16:01:35;3.10;;;2.00;;
16127;SDS011;8168;49.036;7.690;2022-08-23T16:04:05;2.65;;;2.05;;
16127;SDS011;8168;49.036;7.690;2022-08-23T16:06:37;6.35;;;1.90;;
16127;SDS011;8168;49.036;7.690;2022-08-23T16:09:11;2.38;;;2.10;;
16127;SDS011;8168;49.036;7.690;2022-08-23T16:11:46;2.53;;;2.20;;
16127;SDS011;8168;49.036;7.690;2022-08-23T16:14:18;2.25;;;2.05;;
16127;SDS011;8168;49.036;7.690;2022-08-23T16:16:48;1.98;;;1.88;;
16127;SDS011;8168;49.036;7.690;2022-08-23T16:19:19;2.55;;;1.88;;
16127;SDS011;8168;49.036;7.690;2022-08-23T16:21:50;2.15;;;1.95;;
16127;SDS011;8168;49.036;7.690;2022-08-23T16:24:22;2.53;;;1.90;;
16127;SDS011;8168;49.036;7.690;2022-08-23T16:26:54;2.17;;;1.95;;
16127;SDS011;8168;49.036;7.690;2022-08-23T16:29:24;2.03;;;1.90;;
16127;SDS011;8168;49.036;7.690;2022-08-23T16:32:01;2.50;;;2.28;;
16127;SDS011;8168;49.036;7.690;2022-08-23T16:34:33;2.45;;;2.10;;
16127;SDS011;8168;49.036;7.690;2022-08-23T16:37:04;2.45;;;1.98;;
16127;SDS011;8168;49.036;7.690;2022-08-23T16:39:36;2.72;;;2.38;;
16127;SDS011;8168;49.036;7.690;2022-08-23T16:42:07;2.13;;;1.80;;
16127;SDS011;8168;49.036;7.690;2022-08-23T16:44:37;2.58;;;1.92;;
16127;SDS011;8168;49.036;7.690;2022-08-23T16:47:08;2.65;;;1.85;;
16127;SDS011;8168;49.036;7.690;2022-08-23T16:49:39;3.58;;;2.30;;
16127;SDS011;8168;49.036;7.690;2022-08-23T16:52:12;3.28;;;1.67;;
16127;SDS011;8168;49.036;7.690;2022-08-23T16:54:43;3.80;;;2.00;;
16127;SDS011;8168;49.036;7.690;2022-08-23T16:57:14;2.85;;;2.25;;
16127;SDS011;8168;49.036;7.690;2022-08-23T16:59:46;2.50;;;2.30;;
16127;SDS011;8168;49.036;7.690;2022-08-23T17:02:36;2.17;;;1.90;;
16127;SDS011;8168;49.036;7.690;2022-08-23T17:05:09;2.30;;;1.90;;
16127;SDS011;8168;49.036;7.690;2022-08-23T17:07:43;2.72;;;2.38;;
16127;SDS011;8168;49.036;7.690;2022-08-23T17:10:14;2.47;;;1.92;;
16127;SDS011;8168;49.036;7.690;2022-08-23T17:12:47;2.15;;;1.95;;
16127;SDS011;8168;49.036;7.690;2022-08-23T17:15:22;1.80;;;1.70;;
16127;SDS011;8168;49.036;7.690;2022-08-23T17:17:55;2.42;;;2.22;;
16127;SDS011;8168;49.036;7.690;2022-08-23T17:20:27;2.22;;;2.03;;
16127;SDS011;8168;49.036;7.690;2022-08-23T17:22:59;4.22;;;2.25;;
16127;SDS011;8168;49.036;7.690;2022-08-23T17:25:30;5.57;;;2.35;;
16127;SDS011;8168;49.036;7.690;2022-08-23T17:28:01;2.40;;;2.20;;